createdAt,value
2022-10-31T00:01:34.763Z,16.30
2022-10-31T00:04:01.973Z,16.30
2022-10-31T00:06:29.309Z,16.20
2022-10-31T00:09:02.502Z,16.20
2022-10-31T00:11:29.817Z,16.20
2022-10-31T00:13:59.658Z,16.20
2022-10-31T00:16:28.179Z,16.20
2022-10-31T00:19:01.594Z,16.10
2022-10-31T00:21:29.935Z,16.20
2022-10-31T00:23:58.583Z,16.20
2022-10-31T00:26:25.682Z,16.20
2022-10-31T00:28:52.465Z,16.10
2022-10-31T00:31:19.347Z,16.10
2022-10-31T00:33:46.191Z,16.10
2022-10-31T00:36:19.346Z,16.10
2022-10-31T00:38:47.464Z,16.10
2022-10-31T00:41:17.169Z,16.10
2022-10-31T00:43:44.785Z,16.10
2022-10-31T00:46:13.551Z,16.10
2022-10-31T00:48:40.430Z,16.00
2022-10-31T00:51:07.592Z,16.10
2022-10-31T00:53:34.535Z,16.10
2022-10-31T00:56:01.238Z,16.10
2022-10-31T00:58:28.272Z,16.00
2022-10-31T01:00:57.794Z,16.00
2022-10-31T01:03:27.793Z,16.00
2022-10-31T01:06:10.331Z,16.00
2022-10-31T01:08:38.569Z,16.00
2022-10-31T01:11:14.173Z,16.00
2022-10-31T01:13:41.673Z,16.00
2022-10-31T01:16:12.909Z,16.00
2022-10-31T01:18:39.993Z,15.90
2022-10-31T01:21:12.193Z,16.00
2022-10-31T01:23:39.656Z,16.00
2022-10-31T01:26:11.770Z,16.00
2022-10-31T01:28:46.593Z,15.90
2022-10-31T01:31:13.922Z,15.90
2022-10-31T01:33:40.942Z,16.00
2022-10-31T01:36:21.127Z,16.00
2022-10-31T01:38:49.352Z,16.00
2022-10-31T01:41:23.670Z,15.80
2022-10-31T01:44:00.195Z,16.00
2022-10-31T01:46:33.880Z,16.00
2022-10-31T01:49:06.837Z,16.10
2022-10-31T01:51:39.672Z,16.00
2022-10-31T01:54:14.932Z,16.00
2022-10-31T01:56:47.454Z,16.00
2022-10-31T01:59:19.042Z,16.00
2022-10-31T02:01:47.198Z,16.00
2022-10-31T02:04:15.923Z,16.00
2022-10-31T02:06:52.035Z,16.00
2022-10-31T02:09:24.433Z,16.00
2022-10-31T02:11:58.289Z,16.00
2022-10-31T02:14:28.279Z,15.90
2022-10-31T02:16:55.837Z,16.00
2022-10-31T02:19:48.919Z,15.90
2022-10-31T02:23:00.449Z,15.90
2022-10-31T02:26:14.744Z,15.90
2022-10-31T02:29:03.429Z,15.90
2022-10-31T02:31:57.584Z,15.90
2022-10-31T02:34:42.816Z,15.90
2022-10-31T02:37:24.787Z,15.90
2022-10-31T02:40:14.860Z,15.90
2022-10-31T02:43:04.129Z,15.90
2022-10-31T02:46:00.853Z,15.90
2022-10-31T02:48:36.910Z,15.90
2022-10-31T02:51:05.994Z,15.90
2022-10-31T02:53:35.107Z,15.90
2022-10-31T02:56:17.780Z,15.90
2022-10-31T02:59:00.877Z,15.90
2022-10-31T03:02:04.659Z,15.90
2022-10-31T03:04:58.233Z,15.80
2022-10-31T03:07:44.044Z,15.80
2022-10-31T03:10:47.275Z,15.80
2022-10-31T03:13:52.012Z,15.80
2022-10-31T03:16:25.898Z,15.80
2022-10-31T03:19:06.187Z,15.80
2022-10-31T03:21:46.672Z,15.80
2022-10-31T03:24:15.658Z,15.80
2022-10-31T03:26:57.431Z,15.70
2022-10-31T03:29:31.124Z,15.80
2022-10-31T03:32:14.487Z,15.70
2022-10-31T03:34:47.253Z,15.80
2022-10-31T03:37:19.731Z,15.70
2022-10-31T03:39:49.626Z,15.70
2022-10-31T03:42:33.415Z,15.70
2022-10-31T03:45:15.481Z,15.70
2022-10-31T03:47:44.684Z,15.70
2022-10-31T03:50:16.176Z,15.70
2022-10-31T03:53:11.604Z,15.60
2022-10-31T03:55:50.612Z,15.70
2022-10-31T03:58:38.491Z,15.70
2022-10-31T04:01:11.027Z,15.70
2022-10-31T04:03:39.710Z,15.70
2022-10-31T04:06:14.707Z,15.70
2022-10-31T04:08:58.070Z,15.70
2022-10-31T04:11:32.033Z,15.70
2022-10-31T04:14:02.591Z,15.70
2022-10-31T04:16:29.833Z,15.70
2022-10-31T04:18:57.171Z,15.70
2022-10-31T04:21:31.486Z,15.70
2022-10-31T04:23:58.724Z,15.70
2022-10-31T04:26:25.782Z,15.70
2022-10-31T04:28:52.590Z,15.70
2022-10-31T04:31:19.514Z,15.80
2022-10-31T04:33:46.628Z,15.70
2022-10-31T04:36:13.792Z,15.70
2022-10-31T04:38:41.584Z,15.70
2022-10-31T04:41:08.502Z,15.70
2022-10-31T04:43:35.215Z,15.80
2022-10-31T04:46:02.009Z,15.80
2022-10-31T04:48:29.059Z,16.00
2022-10-31T04:51:01.506Z,15.80
2022-10-31T04:53:29.218Z,15.70
2022-10-31T04:55:58.434Z,15.80
2022-10-31T04:58:25.155Z,15.80
2022-10-31T05:00:56.690Z,15.80
2022-10-31T05:03:23.447Z,15.90
2022-10-31T05:05:50.372Z,15.50
2022-10-31T05:08:17.191Z,15.80
2022-10-31T05:10:43.926Z,15.90
2022-10-31T05:13:11.639Z,15.90
2022-10-31T05:15:38.471Z,15.90
2022-10-31T05:18:05.270Z,16.00
2022-10-31T05:20:32.330Z,15.90
2022-10-31T05:23:00.365Z,15.90
2022-10-31T05:25:29.817Z,15.90
2022-10-31T05:27:58.391Z,15.90
2022-10-31T05:30:30.593Z,15.90
2022-10-31T05:32:58.093Z,15.90
2022-10-31T05:35:32.405Z,16.00
2022-10-31T05:37:59.690Z,16.00
2022-10-31T05:40:28.584Z,16.00
2022-10-31T05:42:59.504Z,16.00
2022-10-31T05:45:27.488Z,16.00
2022-10-31T05:47:58.243Z,16.00
2022-10-31T05:50:27.446Z,16.00
2022-10-31T05:53:06.570Z,16.00
2022-10-31T05:55:33.896Z,16.00
2022-10-31T05:58:01.429Z,16.10
2022-10-31T06:00:29.273Z,15.90
2022-10-31T06:03:01.247Z,16.00
2022-10-31T06:05:29.517Z,16.10
2022-10-31T06:07:57.222Z,16.10
2022-10-31T06:10:25.463Z,16.10
2022-10-31T06:12:52.357Z,16.10
2022-10-31T06:15:23.679Z,16.00
2022-10-31T06:18:04.658Z,16.10
2022-10-31T06:20:33.002Z,16.10
2022-10-31T06:23:00.138Z,16.10
2022-10-31T06:25:27.762Z,16.10
2022-10-31T06:27:55.598Z,16.20
2022-10-31T06:30:22.422Z,16.20
2022-10-31T06:32:50.473Z,16.20
2022-10-31T06:35:18.045Z,16.20
2022-10-31T06:37:53.060Z,16.20
2022-10-31T06:40:20.070Z,16.30
2022-10-31T06:42:46.778Z,16.20
2022-10-31T06:45:13.819Z,16.30
2022-10-31T06:47:56.822Z,16.30
2022-10-31T06:50:28.169Z,16.30
2022-10-31T06:52:58.480Z,16.40
2022-10-31T06:55:27.887Z,16.40
2022-10-31T06:58:01.916Z,16.40
2022-10-31T07:00:31.932Z,16.40
2022-10-31T07:03:02.232Z,16.40
2022-10-31T07:05:30.395Z,16.50
2022-10-31T07:08:01.475Z,16.40
2022-10-31T07:10:33.185Z,16.40
2022-10-31T07:13:06.323Z,16.50
2022-10-31T07:15:40.101Z,16.60
2022-10-31T07:18:09.836Z,16.60
2022-10-31T07:20:36.800Z,16.70
2022-10-31T07:23:05.269Z,16.70
2022-10-31T07:25:32.429Z,16.70
2022-10-31T07:27:59.656Z,16.80
2022-10-31T07:30:26.689Z,16.90
2022-10-31T07:32:53.521Z,16.80
2022-10-31T07:35:24.618Z,17.00
2022-10-31T07:37:51.870Z,17.00
2022-10-31T07:40:20.486Z,17.10
2022-10-31T07:42:51.572Z,17.20
2022-10-31T07:45:22.119Z,17.30
2022-10-31T07:47:52.191Z,17.40
2022-10-31T07:50:26.213Z,17.50
2022-10-31T07:53:05.731Z,17.50
2022-10-31T07:55:34.357Z,17.50
2022-10-31T07:58:07.860Z,17.50
2022-10-31T08:00:37.154Z,19.90
2022-10-31T08:03:13.312Z,17.60
2022-10-31T08:05:41.952Z,17.60
2022-10-31T08:08:09.850Z,17.60
2022-10-31T08:10:37.255Z,17.70
2022-10-31T08:13:12.736Z,17.70
2022-10-31T08:15:42.421Z,17.70
2022-10-31T08:18:16.381Z,17.70
2022-10-31T08:20:44.417Z,17.70
2022-10-31T08:23:13.112Z,17.80
2022-10-31T08:25:40.399Z,17.70
2022-10-31T08:28:09.504Z,17.70
2022-10-31T08:30:38.977Z,17.70
2022-10-31T08:33:13.476Z,17.70
2022-10-31T08:35:41.349Z,17.70
2022-10-31T08:38:11.771Z,17.60
2022-10-31T08:40:39.568Z,17.70
2022-10-31T08:43:12.633Z,17.70
2022-10-31T08:45:39.975Z,17.60
2022-10-31T08:48:12.529Z,17.60
2022-10-31T08:50:40.548Z,17.60
2022-10-31T08:53:14.119Z,17.60
2022-10-31T08:55:43.479Z,17.60
2022-10-31T08:58:19.857Z,17.60
2022-10-31T09:00:50.999Z,17.60
2022-10-31T09:03:27.959Z,17.60
2022-10-31T09:06:00.996Z,17.60
2022-10-31T09:08:31.314Z,17.60
2022-10-31T09:10:59.004Z,17.60
2022-10-31T09:13:28.105Z,17.60
2022-10-31T09:15:57.886Z,17.60
2022-10-31T09:18:25.431Z,17.60
2022-10-31T09:20:52.370Z,17.60
2022-10-31T09:23:23.483Z,17.60
2022-10-31T09:25:53.397Z,17.60
2022-10-31T09:28:24.202Z,17.60
2022-10-31T09:30:53.726Z,17.70
2022-10-31T09:33:21.580Z,17.70
2022-10-31T09:35:48.591Z,17.70
2022-10-31T09:38:23.311Z,17.60
2022-10-31T09:41:08.966Z,17.80
2022-10-31T09:44:16.327Z,17.80
2022-10-31T09:46:55.174Z,17.90
2022-10-31T09:50:03.227Z,17.90
2022-10-31T09:52:36.801Z,17.90
2022-10-31T09:55:27.812Z,18.00
2022-10-31T09:57:54.974Z,18.10
2022-10-31T10:00:23.577Z,18.10
2022-10-31T10:03:17.785Z,18.10
2022-10-31T10:05:52.181Z,18.10
2022-10-31T10:08:27.799Z,18.20
2022-10-31T10:11:33.164Z,18.30
2022-10-31T10:14:17.063Z,18.30
2022-10-31T10:17:23.075Z,18.30
2022-10-31T10:20:26.385Z,18.40
2022-10-31T10:23:30.755Z,18.40
2022-10-31T10:26:16.508Z,18.50
2022-10-31T10:28:49.767Z,18.50
2022-10-31T10:31:24.298Z,18.60
2022-10-31T10:34:24.022Z,18.60
2022-10-31T10:37:05.436Z,18.70
2022-10-31T10:39:46.464Z,18.70
2022-10-31T10:42:34.914Z,18.70
2022-10-31T10:45:37.238Z,18.80
2022-10-31T10:48:22.549Z,18.90
2022-10-31T10:50:52.418Z,18.90
2022-10-31T10:54:14.661Z,19.00
2022-10-31T10:56:59.608Z,19.00
2022-10-31T10:59:27.779Z,19.10
2022-10-31T11:01:54.699Z,19.20
2022-10-31T11:04:45.042Z,19.20
2022-10-31T11:07:12.650Z,19.30
2022-10-31T11:09:39.725Z,19.30
2022-10-31T11:12:20.413Z,19.40
2022-10-31T11:14:56.919Z,19.50
2022-10-31T11:17:55.346Z,19.50
2022-10-31T11:20:29.403Z,19.60
2022-10-31T11:23:06.380Z,19.60
2022-10-31T11:25:33.447Z,19.70
2022-10-31T11:28:20.723Z,19.80
2022-10-31T11:30:59.455Z,19.70
2022-10-31T11:33:39.326Z,19.90
2022-10-31T11:36:30.149Z,19.90
2022-10-31T11:38:57.257Z,20.00
2022-10-31T11:41:34.765Z,20.00
2022-10-31T11:44:18.783Z,20.00
2022-10-31T11:46:52.113Z,20.10
2022-10-31T11:49:39.514Z,20.20
2022-10-31T11:52:16.166Z,20.20
2022-10-31T11:54:55.362Z,20.30
2022-10-31T11:57:42.782Z,20.30
2022-10-31T12:00:30.415Z,20.40
2022-10-31T12:03:11.935Z,20.20
2022-10-31T12:05:42.784Z,20.40
2022-10-31T12:08:14.122Z,20.50
2022-10-31T12:10:52.921Z,20.50
2022-10-31T12:13:42.053Z,20.50
2022-10-31T12:16:43.145Z,20.60
2022-10-31T12:19:34.568Z,20.60
2022-10-31T12:22:10.320Z,20.60
2022-10-31T12:24:55.519Z,20.60
2022-10-31T12:28:13.848Z,20.60
2022-10-31T12:31:21.344Z,20.70
2022-10-31T12:34:28.837Z,20.80
2022-10-31T12:37:16.663Z,20.80
2022-10-31T12:39:55.854Z,20.80
2022-10-31T12:42:45.559Z,20.90
2022-10-31T12:45:52.211Z,20.90
2022-10-31T12:48:55.472Z,20.90
2022-10-31T12:51:57.720Z,21.00
2022-10-31T12:55:18.027Z,21.00
2022-10-31T12:57:51.986Z,21.90
2022-10-31T13:00:21.061Z,21.00
2022-10-31T13:03:26.177Z,21.10
2022-10-31T13:05:59.808Z,21.10
2022-10-31T13:09:00.491Z,21.10
2022-10-31T13:11:38.818Z,21.20
2022-10-31T13:14:56.514Z,21.20
2022-10-31T13:17:42.294Z,21.20
2022-10-31T13:20:31.166Z,21.20
2022-10-31T13:23:49.986Z,21.20
2022-10-31T13:26:37.258Z,21.30
2022-10-31T13:29:13.125Z,21.30
2022-10-31T13:31:44.020Z,21.30
2022-10-31T13:34:24.470Z,21.30
2022-10-31T13:37:40.221Z,21.30
2022-10-31T13:40:31.622Z,21.30
2022-10-31T13:43:20.982Z,21.40
2022-10-31T13:45:54.394Z,21.30
2022-10-31T13:48:40.164Z,21.30
2022-10-31T13:51:10.638Z,21.30
2022-10-31T13:53:52.478Z,21.30
2022-10-31T13:56:28.717Z,21.30
2022-10-31T13:59:20.561Z,21.40
2022-10-31T14:01:52.416Z,21.40
2022-10-31T14:04:25.846Z,21.30
2022-10-31T14:07:05.659Z,21.40
2022-10-31T14:09:54.459Z,21.40
2022-10-31T14:12:37.132Z,21.40
2022-10-31T14:15:21.183Z,21.40
2022-10-31T14:17:52.439Z,21.30
2022-10-31T14:20:19.098Z,21.30
2022-10-31T14:22:46.119Z,21.30
2022-10-31T14:25:36.180Z,21.20
2022-10-31T14:28:34.505Z,21.30
2022-10-31T14:31:02.697Z,21.20
2022-10-31T14:33:31.854Z,21.20
2022-10-31T14:36:20.154Z,21.20
2022-10-31T14:39:19.156Z,21.20
2022-10-31T14:42:09.658Z,21.20
2022-10-31T14:44:49.089Z,21.20
2022-10-31T14:48:06.773Z,21.10
2022-10-31T14:51:13.490Z,21.10
2022-10-31T14:53:56.287Z,21.10
2022-10-31T14:56:30.645Z,21.00
2022-10-31T14:59:04.006Z,20.90
2022-10-31T15:01:38.965Z,20.70
2022-10-31T15:04:25.152Z,20.80
2022-10-31T15:07:20.433Z,20.70
2022-10-31T15:10:07.928Z,20.60
2022-10-31T15:12:39.477Z,20.40
2022-10-31T15:15:16.146Z,20.40
2022-10-31T15:17:50.200Z,20.30
2022-10-31T15:20:25.485Z,20.20
2022-10-31T15:22:52.386Z,20.10
2022-10-31T15:25:25.920Z,20.10
2022-10-31T15:27:54.147Z,20.00
2022-10-31T15:30:27.708Z,19.80
2022-10-31T15:32:58.557Z,19.90
2022-10-31T15:35:31.427Z,19.80
2022-10-31T15:38:00.534Z,19.70
2022-10-31T15:40:29.224Z,19.60
2022-10-31T15:43:01.960Z,19.60
2022-10-31T15:45:31.209Z,19.60
2022-10-31T15:48:17.733Z,19.50
2022-10-31T15:50:54.558Z,19.40
2022-10-31T15:53:49.349Z,19.40
2022-10-31T15:56:32.957Z,19.30
2022-10-31T15:59:01.958Z,19.20
2022-10-31T16:01:35.275Z,19.20
2022-10-31T16:04:20.778Z,19.20
2022-10-31T16:07:01.509Z,19.10
2022-10-31T16:09:28.716Z,19.00
2022-10-31T16:11:59.309Z,19.00
2022-10-31T16:14:31.808Z,20.90
2022-10-31T16:17:00.550Z,19.00
2022-10-31T16:19:35.195Z,18.90
2022-10-31T16:22:15.688Z,18.80
2022-10-31T16:25:16.495Z,18.80
2022-10-31T16:27:54.459Z,18.80
2022-10-31T16:30:47.972Z,18.80
2022-10-31T16:33:37.233Z,18.70
2022-10-31T16:36:36.428Z,18.70
2022-10-31T16:39:04.269Z,18.70
2022-10-31T16:41:31.091Z,18.60
2022-10-31T16:43:58.073Z,18.60
2022-10-31T16:46:28.701Z,18.60
2022-10-31T16:48:55.761Z,18.50
2022-10-31T16:51:22.454Z,18.40
2022-10-31T16:53:52.641Z,18.50
2022-10-31T16:56:32.451Z,18.40
2022-10-31T16:59:03.353Z,18.40
2022-10-31T17:01:31.635Z,18.40
2022-10-31T17:03:58.617Z,18.30
2022-10-31T17:06:28.499Z,18.30
2022-10-31T17:08:55.627Z,18.30
2022-10-31T17:11:26.070Z,18.30
2022-10-31T17:13:54.786Z,18.30
2022-10-31T17:16:21.570Z,18.30
2022-10-31T17:18:49.424Z,18.20
2022-10-31T17:21:23.810Z,18.20
2022-10-31T17:23:51.530Z,18.20
2022-10-31T17:26:19.118Z,18.10
2022-10-31T17:28:46.269Z,18.10
2022-10-31T17:31:30.171Z,18.10
2022-10-31T17:34:02.212Z,18.00
2022-10-31T17:36:32.444Z,18.00
2022-10-31T17:38:59.976Z,17.90
2022-10-31T17:41:26.735Z,17.90
2022-10-31T17:43:57.684Z,17.80
2022-10-31T17:46:24.717Z,17.80
2022-10-31T17:48:51.569Z,17.70
2022-10-31T17:51:18.423Z,17.70
2022-10-31T17:53:45.206Z,17.60
2022-10-31T17:56:11.982Z,17.60
2022-10-31T17:58:38.759Z,17.50
2022-10-31T18:01:15.138Z,17.50
2022-10-31T18:03:42.589Z,17.50
2022-10-31T18:06:10.948Z,17.50
2022-10-31T18:08:41.000Z,17.40
2022-10-31T18:11:15.313Z,17.40
2022-10-31T18:13:42.368Z,17.30
2022-10-31T18:16:12.856Z,17.30
2022-10-31T18:18:39.704Z,17.30
2022-10-31T18:21:06.783Z,17.30
2022-10-31T18:23:33.649Z,17.20
2022-10-31T18:26:00.757Z,17.20
2022-10-31T18:28:27.533Z,17.20
2022-10-31T18:30:54.318Z,17.20
2022-10-31T18:33:21.065Z,17.10
2022-10-31T18:35:47.838Z,17.10
2022-10-31T18:38:14.576Z,17.00
2022-10-31T18:40:41.404Z,17.20
2022-10-31T18:43:08.177Z,17.10
2022-10-31T18:45:46.573Z,17.10
2022-10-31T18:48:15.970Z,17.10
2022-10-31T18:50:43.084Z,17.10
2022-10-31T18:53:10.381Z,17.10
2022-10-31T18:55:45.377Z,17.00
2022-10-31T18:58:16.063Z,17.10
2022-10-31T19:00:42.879Z,17.10
2022-10-31T19:03:09.718Z,17.00
2022-10-31T19:05:36.453Z,17.00
2022-10-31T19:08:03.493Z,17.00
2022-10-31T19:10:30.543Z,17.10
2022-10-31T19:12:57.281Z,17.00
2022-10-31T19:15:24.072Z,17.00
2022-10-31T19:17:50.985Z,17.00
2022-10-31T19:20:17.904Z,16.90
2022-10-31T19:22:44.685Z,17.00
2022-10-31T19:25:11.461Z,17.00
2022-10-31T19:27:39.260Z,17.00
2022-10-31T19:30:08.246Z,16.90
2022-10-31T19:32:35.022Z,16.90
2022-10-31T19:35:02.740Z,16.90
2022-10-31T19:37:29.512Z,16.90
2022-10-31T19:39:56.443Z,16.90
2022-10-31T19:42:24.281Z,16.90
2022-10-31T19:44:51.037Z,16.90
2022-10-31T19:47:17.790Z,16.90
2022-10-31T19:49:44.495Z,16.90
2022-10-31T19:52:11.262Z,16.80
2022-10-31T19:54:37.955Z,16.80
2022-10-31T19:57:04.701Z,16.90
2022-10-31T19:59:35.175Z,16.80
2022-10-31T20:02:05.799Z,16.90
2022-10-31T20:04:32.809Z,16.90
2022-10-31T20:06:59.545Z,16.90
2022-10-31T20:09:26.271Z,16.90
2022-10-31T20:11:52.982Z,16.90
2022-10-31T20:14:19.682Z,16.90
2022-10-31T20:16:46.796Z,16.90
2022-10-31T20:19:14.222Z,16.90
2022-10-31T20:21:41.440Z,16.90
2022-10-31T20:24:10.884Z,16.90
2022-10-31T20:26:40.762Z,16.90
2022-10-31T20:29:08.224Z,17.00
2022-10-31T20:31:36.743Z,17.00
2022-10-31T20:34:04.301Z,17.00
2022-10-31T20:36:31.279Z,17.00
2022-10-31T20:38:58.847Z,16.90
2022-10-31T20:41:26.410Z,17.00
2022-10-31T20:43:53.588Z,16.90
2022-10-31T20:46:26.783Z,16.90
2022-10-31T20:48:54.396Z,17.00
2022-10-31T20:51:25.760Z,16.90
2022-10-31T20:53:55.076Z,16.90
2022-10-31T20:56:25.852Z,17.00
2022-10-31T20:58:54.391Z,17.00
2022-10-31T21:01:23.613Z,16.90
2022-10-31T21:03:50.897Z,17.00
2022-10-31T21:06:20.006Z,17.00
2022-10-31T21:08:47.429Z,17.00
2022-10-31T21:11:19.094Z,16.90
2022-10-31T21:13:47.688Z,17.00
2022-10-31T21:16:21.813Z,17.00
2022-10-31T21:18:49.975Z,16.90
2022-10-31T21:21:29.102Z,16.90
2022-10-31T21:24:06.326Z,16.90
2022-10-31T21:26:38.631Z,17.00
2022-10-31T21:29:07.413Z,16.90
2022-10-31T21:31:36.664Z,16.90
2022-10-31T21:34:04.130Z,16.90
2022-10-31T21:36:31.511Z,16.90
2022-10-31T21:38:58.416Z,16.90
2022-10-31T21:41:28.013Z,16.90
2022-10-31T21:43:55.262Z,16.90
2022-10-31T21:46:30.894Z,16.90
2022-10-31T21:48:58.866Z,17.00
2022-10-31T21:51:32.833Z,16.90
2022-10-31T21:54:18.899Z,16.90
2022-10-31T21:56:45.828Z,16.90
2022-10-31T21:59:12.875Z,16.90
2022-10-31T22:01:39.901Z,16.90
2022-10-31T22:04:06.724Z,16.90
2022-10-31T22:06:33.972Z,16.80
2022-10-31T22:09:05.284Z,16.80
2022-10-31T22:11:32.116Z,16.80
2022-10-31T22:14:00.562Z,16.80
2022-10-31T22:16:29.920Z,16.80
2022-10-31T22:18:59.911Z,16.80
2022-10-31T22:21:28.654Z,16.70
2022-10-31T22:24:03.289Z,16.80
2022-10-31T22:26:32.450Z,16.80
2022-10-31T22:29:00.661Z,16.80
2022-10-31T22:31:29.222Z,16.80
2022-10-31T22:33:57.267Z,16.80
2022-10-31T22:36:28.476Z,16.80
2022-10-31T22:38:55.623Z,16.90
2022-10-31T22:41:26.665Z,16.80
2022-10-31T22:43:55.308Z,16.80
2022-10-31T22:46:32.266Z,16.80
2022-10-31T22:49:05.855Z,16.80
2022-10-31T22:51:37.628Z,16.90
2022-10-31T22:54:07.336Z,16.80
2022-10-31T22:56:34.939Z,16.80
2022-10-31T22:59:02.664Z,16.80
2022-10-31T23:01:33.113Z,16.70
2022-10-31T23:04:01.213Z,16.70
2022-10-31T23:06:31.176Z,16.70
2022-10-31T23:09:01.070Z,16.60
2022-10-31T23:11:40.345Z,16.70
2022-10-31T23:14:13.994Z,16.70
2022-10-31T23:16:48.076Z,16.60
2022-10-31T23:19:27.493Z,16.70
2022-10-31T23:22:00.451Z,16.70
2022-10-31T23:24:44.974Z,16.70
2022-10-31T23:27:17.555Z,16.70
2022-10-31T23:29:55.368Z,16.70
2022-10-31T23:32:29.619Z,16.70
2022-10-31T23:35:10.643Z,16.70
2022-10-31T23:37:38.909Z,16.70
2022-10-31T23:40:08.633Z,16.70
2022-10-31T23:42:35.884Z,16.70
2022-10-31T23:45:02.703Z,16.70
2022-10-31T23:47:29.656Z,16.70
2022-10-31T23:49:56.965Z,16.70
2022-10-31T23:52:23.709Z,16.80
2022-10-31T23:54:50.559Z,16.80
2022-10-31T23:57:17.989Z,16.80
2022-10-31T23:59:44.832Z,16.80
